Scroll down
FLIGHT INFORMATION
United Airlines

UAL493

At Arrival Gate

KSFO
 KLAX
DATE: 2018-08-16
GATE: G100
GATE DEPARTURE: 19:17
TAKEOFF: 19:29
DATE: 2018-08-16
GATE: 159
LANDING: 20:22
GATE ARRIVAL: 20:30
FLIGHT DATA
Crew: MICHAEL ROTH
Speed: 500 kts Altitude: 35000 ft
Stage Length: 293 nm
Route: 
Block Time: 1.2 Flight Time: 0.9
Fuel Used: 22989 LB
TRACK DATA
50000 FT1000 KT
AIRCRAFT INFORMATION
Aircraft Type: B744
Registration: N127UA
SELCAL: DPMQ MSN/LN: 28813 / 1221
Operator: UNITED AIRLINES
Flights: 2 Block Time: 1.9 Flight Time: 1.3
Fuel Used: 34003 LB
  • DEPARTURE INFORMATION
    Date: 2018-08-16
    Airport: KSFO
    Gate: G100
    Gate Departure: 19:17
    Takeoff: 19:29
    ARRIVAL INFORMATION
    Date: 2018-08-16
    Airport: KLAX
    Gate: 159
    Landing: 20:22
    Gate Arrival: 20:30
  • FLIGHT DATA
    Crew: MICHAEL ROTH
    Speed: 500 kts Altitude: 35000 ft
    Stage Length: 158 nm
    Route: 
    Block Time: 1.2 Flight Time: 0.9
    Fuel Used: 22989 LB
  • AIRCRAFT INFORMATION
    Aircraft Type: B744
    Registration: N127UA
    SELCAL: DPMQ MSN/LN: 28813 / 1221
    Operator: United Airlines
    Flights: 2 Block Time: 1.9 Flight Time: 1.3
    Fuel Used: 34003 LB

DATALINK LOG | Newest first | Current as of: 2020-09-21 16:44:47
LABEL SEQUENCE CONTENT Dn/Up
QD302520:30 21.7▼ Dn
QC222920:22▼ Dn
2U0156KLAX 160453Z VRB05KT 10SM FEW011 23/19 A2994 RMK AO2 SLP134 T02280189▲ Up
2S0555KLAX▼ Dn
GA4801GATE 159▲ Up
GR5229KLAX▼ Dn
464748/OV XXX /TM 1947 /FL350 /TP B744 /TA -11 /WV 214/39 /RM I BELIEVE I CAN FLY▼ Dn
QB029119:29▼ Dn
QA171419:17 45▼ Dn
2U0118KLAX 160353Z 23005KT 10SM FEW011 22/19 A2992 RMK AO2 SLP130 T02220189▲ Up
2U0118KSFO 160356Z 27012KT 10SM FEW005 SCT010 16/14 A2994 RMK AO2 SLP137 T01610139▲ Up
2S0522KSFO KLAX▼ Dn


AIRCRAFT HISTORY
FLIGHT DATE FLIGHT NO. ORIGIN DESTINATION ROUTE BLOCK TIME FLIGHT TIME FUEL USED (LB) PILOT
2019-01-19UAL1768KLAX KVCV LAX VALEY LANGE KIMMO SLAPP BOGET PMD0.90.411015Douglas Morlan
2018-08-16UAL493KSFO KLAX 1.20.922989Michael Roth